Clarks Hill, SC (29821)

2:00 AM EDT on May 01, 2017 (GMT -0400)
MCHDS1 | | Change Station

Elev 298 ft 33.66 °N, 82.20 °W | Updated 1 hour ago

Overcast
Overcast
75.0 °F
Feels Like 75.0 °F
N
3.0
Wind Variable Wind from SE
Gusts 16.0 mph

Today
High -- | Low -- °F
--% Chance of Precip.
Yesterday
High -- | Low -- °F
Precip. -- in
Pressure 30.04 in
Visibility 10.0 miles
Clouds Overcast 1800 ft
Dew Point Not available.
Humidity Not available.
Rainfall 0.00 in
Snow Depth Not available.
6:39 AM 8:11 PM
Waxing Crescent, 30% visible
METAR KDNL 010553Z AUTO 16010KT 10SM OVC018 23/19 A3005 RMK AO2 SLP171 T02330189 10278 20233 58004
Pressure 30.04 in
Visibility 10.0 miles
Clouds Overcast 1800 ft
Dew Point Not available.
Humidity Not available.
Rainfall 0.00 in
Snow Depth Not available.
6:39 AM 8:11 PM
Waxing Crescent, 30% visible
METAR KDNL 010553Z AUTO 16010KT 10SM OVC018 23/19 A3005 RMK AO2 SLP171 T02330189 10278 20233 58004

Get Severe Weather Alerts

Thanks for signing up!

Be on the lookout for a verification email in your inbox.

You'll start receiving the daily forecast at 8 AM.

×

10-Day Weather Forecast

Almanac

Astronomy

May. 01, 2017 Rise Set
Actual Time
Civil Twilight
Nautical Twilight
Astronomical Twilight
Moon
Length of Visible Light
Length of Day
Tomorrow will be .
, % of the Moon is Illuminated

Today's Extremes

State Highs State Lows

Community

WunderPhotos

WunderBlog® & News

Nearby

Air Quality

  Air Quality AQ Index Pollutant
Not available.

Snow Depth

Station Depth Elevation

Earthquake Activity

City Distance Mag. Time & Date
Minimum magnitude displayed is 2.5.

Coastal Water Temperatures

Place Temperature

Stations

Nearby Weather Stations

Station Location Temp. Windchill Dew Point Humidity Wind Precip. Elev Updated Type
                   

Watches & Warnings

There are currently no watches in effect.